createdAt,value
2023-04-11T00:00:48.106Z,1014.22
2023-04-11T00:02:48.498Z,1014.27
2023-04-11T00:04:48.171Z,1014.30
2023-04-11T00:06:48.105Z,1014.30
2023-04-11T00:08:48.136Z,1014.24
2023-04-11T00:10:48.056Z,1014.12
2023-04-11T00:12:49.173Z,1014.01
2023-04-11T00:14:48.096Z,1014.01
2023-04-11T00:16:48.463Z,1013.95
2023-04-11T00:18:48.147Z,1013.90
2023-04-11T00:20:48.187Z,1013.84
2023-04-11T00:22:48.124Z,1013.64
2023-04-11T00:24:48.089Z,1013.64
2023-04-11T00:26:48.065Z,1013.59
2023-04-11T00:28:48.127Z,1013.56
2023-04-11T00:30:48.174Z,1013.53
2023-04-11T00:32:48.168Z,1013.53
2023-04-11T00:34:48.188Z,1013.53
2023-04-11T00:36:48.863Z,1013.29
2023-04-11T00:38:48.162Z,1013.14
2023-04-11T00:40:48.123Z,1013.05
2023-04-11T00:42:48.115Z,1013.05
2023-04-11T00:44:48.142Z,1013.06
2023-04-11T00:46:48.161Z,1012.93
2023-04-11T00:48:48.079Z,1012.86
2023-04-11T00:50:48.089Z,1012.89
2023-04-11T00:52:48.081Z,1012.89
2023-04-11T00:54:48.102Z,1012.91
2023-04-11T00:56:48.141Z,1012.91
2023-04-11T00:58:49.181Z,1013.03
2023-04-11T01:00:48.508Z,1013.07
2023-04-11T01:02:48.198Z,1013.07
2023-04-11T01:04:48.098Z,1013.08
2023-04-11T01:06:48.107Z,1013.06
2023-04-11T01:08:48.151Z,1013.01
2023-04-11T01:10:48.115Z,1013.00
2023-04-11T01:12:48.079Z,1013.00
2023-04-11T01:14:48.171Z,1013.00
2023-04-11T01:16:48.264Z,1012.97
2023-04-11T01:18:48.105Z,1012.92
2023-04-11T01:20:48.105Z,1012.92
2023-04-11T01:22:48.100Z,1012.83
2023-04-11T01:24:48.109Z,1012.66
2023-04-11T01:26:48.153Z,1012.64
2023-04-11T01:28:48.242Z,1012.77
2023-04-11T01:30:48.280Z,1012.77
2023-04-11T01:32:48.187Z,1012.81
2023-04-11T01:34:48.191Z,1012.85
2023-04-11T01:36:48.172Z,1012.88
2023-04-11T01:38:48.289Z,1013.00
2023-04-11T01:40:48.154Z,1013.00
2023-04-11T01:42:48.136Z,1013.03
2023-04-11T01:44:48.177Z,1012.98
2023-04-11T01:46:51.699Z,1013.03
2023-04-11T01:48:48.303Z,1013.03
2023-04-11T01:50:48.184Z,1013.00
2023-04-11T01:52:48.195Z,1012.95
2023-04-11T01:55:48.162Z,1012.95
2023-04-11T01:57:48.177Z,1012.90
2023-04-11T01:58:51.689Z,1012.90
2023-04-11T02:01:48.245Z,1012.67
2023-04-11T02:03:48.315Z,1012.67
2023-04-11T02:05:48.148Z,1012.56
2023-04-11T02:07:48.169Z,1012.65
2023-04-11T02:09:48.205Z,1012.74
2023-04-11T02:11:48.162Z,1012.80
2023-04-11T02:13:48.192Z,1012.80
2023-04-11T02:15:48.235Z,1012.81
2023-04-11T02:17:48.319Z,1012.80
2023-04-11T02:19:48.139Z,1012.84
2023-04-11T02:21:48.313Z,1012.84
2023-04-11T02:23:48.196Z,1012.76
2023-04-11T02:25:48.298Z,1012.74
2023-04-11T02:27:48.140Z,1012.69
2023-04-11T02:29:48.227Z,1012.68
2023-04-11T02:31:48.296Z,1012.68
2023-04-11T02:33:48.181Z,1012.56
2023-04-11T02:35:48.227Z,1012.56
2023-04-11T02:37:48.800Z,1012.72
2023-04-11T02:39:48.724Z,1012.76
2023-04-11T02:41:48.182Z,1012.76
2023-04-11T02:43:48.180Z,1012.63
2023-04-11T02:45:48.395Z,1012.62
2023-04-11T02:47:48.191Z,1012.64
2023-04-11T02:49:52.077Z,1012.64
2023-04-11T02:51:48.201Z,1012.66
2023-04-11T02:53:48.193Z,1012.67
2023-04-11T02:55:48.856Z,1012.62
2023-04-11T02:57:48.161Z,1012.66
2023-04-11T02:59:48.184Z,1012.66
2023-04-11T03:01:48.361Z,1012.68
2023-04-11T03:03:48.312Z,1012.74
2023-04-11T03:05:48.402Z,1012.74
2023-04-11T03:07:48.279Z,1012.78
2023-04-11T03:09:48.185Z,1012.78
2023-04-11T03:11:48.216Z,1012.86
2023-04-11T03:13:48.255Z,1012.88
2023-04-11T03:15:48.272Z,1012.88
2023-04-11T03:17:48.363Z,1012.88
2023-04-11T03:19:48.514Z,1012.96
2023-04-11T03:21:48.275Z,1012.98
2023-04-11T03:23:48.360Z,1013.04
2023-04-11T03:25:48.548Z,1013.02
2023-04-11T03:27:48.270Z,1013.02
2023-04-11T03:29:48.588Z,1013.10
2023-04-11T03:31:48.332Z,1013.14
2023-04-11T03:33:48.289Z,1013.31
2023-04-11T03:35:48.301Z,1013.30
2023-04-11T03:37:48.256Z,1013.30
2023-04-11T03:39:48.204Z,1013.17
2023-04-11T03:41:48.674Z,1013.24
2023-04-11T03:43:48.252Z,1013.33
2023-04-11T03:45:52.125Z,1013.33
2023-04-11T03:47:48.242Z,1013.38
2023-04-11T03:49:48.266Z,1013.39
2023-04-11T03:51:48.852Z,1013.39
2023-04-11T03:53:48.413Z,1013.37
2023-04-11T03:55:48.360Z,1013.37
2023-04-11T03:57:48.361Z,1013.37
2023-04-11T03:59:48.491Z,1013.41
2023-04-11T04:01:48.429Z,1013.55
2023-04-11T04:03:48.547Z,1013.62
2023-04-11T04:08:15.628Z,1013.60
2023-04-11T04:10:15.575Z,1013.59
2023-04-11T04:12:15.605Z,1013.59
2023-04-11T04:14:15.577Z,1013.59
2023-04-11T04:16:15.584Z,1013.59
2023-04-11T04:18:15.807Z,1013.41
2023-04-11T04:20:15.603Z,1013.42
2023-04-11T04:22:16.911Z,1013.35
2023-04-11T04:24:15.524Z,1013.35
2023-04-11T04:26:15.594Z,1013.26
2023-04-11T04:28:15.735Z,1013.18
2023-04-11T04:30:15.566Z,1013.06
2023-04-11T04:32:15.547Z,1012.84
2023-04-11T04:34:19.452Z,1012.84
2023-04-11T04:36:15.505Z,1012.80
2023-04-11T04:38:15.584Z,1012.80
2023-04-11T04:40:19.778Z,1012.84
2023-04-11T04:42:15.563Z,1012.86
2023-04-11T04:44:20.610Z,1012.86
2023-04-11T04:46:15.669Z,1012.99
2023-04-11T04:48:15.681Z,1013.05
2023-04-11T04:50:15.627Z,1013.11
2023-04-11T04:52:15.817Z,1013.11
2023-04-11T04:54:15.606Z,1013.15
2023-04-11T04:56:15.530Z,1013.22
2023-04-11T04:58:17.286Z,1013.39
2023-04-11T05:00:15.634Z,1013.41
2023-04-11T05:02:15.867Z,1013.41
2023-04-11T05:04:16.082Z,1013.38
2023-04-11T05:06:15.543Z,1013.40
2023-04-11T05:08:15.577Z,1013.39
2023-04-11T05:10:15.665Z,1013.43
2023-04-11T05:12:15.663Z,1013.43
2023-04-11T05:14:18.521Z,1013.48
2023-04-11T05:16:16.103Z,1013.44
2023-04-11T05:18:15.574Z,1013.44
2023-04-11T05:20:18.657Z,1013.44
2023-04-11T05:22:15.688Z,1013.39
2023-04-11T05:24:20.578Z,1013.45
2023-04-11T05:26:16.394Z,1013.51
2023-04-11T05:28:20.445Z,1013.57
2023-04-11T05:30:15.573Z,1013.57
2023-04-11T05:32:15.690Z,1013.65
2023-04-11T05:34:18.578Z,1013.65
2023-04-11T05:36:15.715Z,1013.78
2023-04-11T05:38:15.659Z,1013.79
2023-04-11T05:40:15.799Z,1013.79
2023-04-11T05:42:15.704Z,1013.88
2023-04-11T05:44:16.097Z,1013.89
2023-04-11T05:46:15.826Z,1014.00
2023-04-11T05:48:16.142Z,1014.00
2023-04-11T05:50:18.277Z,1014.32
2023-04-11T05:52:15.725Z,1014.35
2023-04-11T05:54:15.605Z,1014.42
2023-04-11T05:56:15.625Z,1014.43
2023-04-11T05:58:15.645Z,1014.43
2023-04-11T06:00:15.657Z,1014.43
2023-04-11T06:02:15.959Z,1014.41
2023-04-11T06:04:15.723Z,1014.48
2023-04-11T06:06:16.154Z,1014.48
2023-04-11T06:08:15.568Z,1014.48
2023-04-11T06:10:22.582Z,1014.66
2023-04-11T06:12:15.638Z,1014.66
2023-04-11T06:14:15.677Z,1014.72
2023-04-11T06:16:15.783Z,1014.72
2023-04-11T06:18:15.679Z,1014.79
2023-04-11T06:20:15.828Z,1014.85
2023-04-11T06:22:15.611Z,1014.77
2023-04-11T06:24:15.641Z,1014.82
2023-04-11T06:26:15.602Z,1014.82
2023-04-11T06:28:15.656Z,1014.82
2023-04-11T06:30:15.674Z,1014.82
2023-04-11T06:32:15.611Z,1014.76
2023-04-11T06:34:15.607Z,1014.83
2023-04-11T06:36:15.740Z,1014.83
2023-04-11T06:38:15.697Z,1014.84
2023-04-11T06:40:15.610Z,1014.84
2023-04-11T06:42:15.662Z,1014.89
2023-04-11T06:44:15.662Z,1014.92
2023-04-11T06:46:15.663Z,1014.92
2023-04-11T06:48:15.619Z,1014.92
2023-04-11T06:50:15.874Z,1014.97
2023-04-11T06:52:15.646Z,1014.96
2023-04-11T06:54:15.689Z,1014.96
2023-04-11T06:56:15.728Z,1014.90
2023-04-11T06:58:15.622Z,1014.96
2023-04-11T07:00:15.756Z,1014.95
2023-04-11T07:02:15.813Z,1014.90
2023-04-11T07:04:15.736Z,1014.90
2023-04-11T07:06:15.767Z,1014.88
2023-04-11T07:08:18.668Z,1014.86
2023-04-11T07:10:18.250Z,1014.84
2023-04-11T07:12:17.736Z,1014.83
2023-04-11T07:14:20.703Z,1014.83
2023-04-11T07:16:16.125Z,1014.84
2023-04-11T07:18:15.652Z,1014.91
2023-04-11T07:21:15.636Z,1014.91
2023-04-11T07:23:16.110Z,1014.94
2023-04-11T07:25:16.134Z,1014.88
2023-04-11T07:27:15.704Z,1014.88
2023-04-11T07:29:15.629Z,1014.91
2023-04-11T07:31:15.886Z,1015.03
2023-04-11T07:33:15.726Z,1015.08
2023-04-11T07:35:15.901Z,1015.06
2023-04-11T07:37:15.807Z,1015.06
2023-04-11T07:39:15.656Z,1015.23
2023-04-11T07:41:15.687Z,1015.27
2023-04-11T07:43:19.331Z,1015.36
2023-04-11T07:45:15.760Z,1015.34
2023-04-11T07:47:15.775Z,1015.34
2023-04-11T07:49:15.708Z,1015.26
2023-04-11T07:51:15.650Z,1015.33
2023-04-11T07:53:15.803Z,1015.31
2023-04-11T07:55:18.614Z,1015.31
2023-04-11T07:57:15.648Z,1015.29
2023-04-11T07:59:15.654Z,1015.29
2023-04-11T08:01:15.750Z,1015.29
2023-04-11T08:03:15.904Z,1015.23
2023-04-11T08:05:16.762Z,1015.23
2023-04-11T08:07:15.752Z,1015.31
2023-04-11T08:09:15.837Z,1015.33
2023-04-11T08:11:20.642Z,1015.33
2023-04-11T08:13:15.644Z,1015.40
2023-04-11T08:15:15.650Z,1015.40
2023-04-11T08:17:27.056Z,1015.28
2023-04-11T08:19:15.673Z,1015.35
2023-04-11T08:21:15.697Z,1015.38
2023-04-11T08:23:15.710Z,1015.38
2023-04-11T08:25:15.720Z,1015.35
2023-04-11T08:27:18.639Z,1015.33
2023-04-11T08:29:16.094Z,1015.21
2023-04-11T08:31:15.845Z,1015.26
2023-04-11T08:33:15.690Z,1015.26
2023-04-11T08:35:15.729Z,1015.32
2023-04-11T08:37:15.842Z,1015.34
2023-04-11T08:39:15.663Z,1015.32
2023-04-11T08:41:15.869Z,1015.32
2023-04-11T08:43:15.778Z,1015.32
2023-04-11T08:45:15.734Z,1015.47
2023-04-11T08:47:15.796Z,1015.45
2023-04-11T08:49:15.993Z,1015.43
2023-04-11T08:51:15.790Z,1015.43
2023-04-11T08:53:15.768Z,1015.43
2023-04-11T08:55:15.667Z,1015.50
2023-04-11T08:57:15.675Z,1015.60
2023-04-11T08:59:15.685Z,1015.68
2023-04-11T09:01:15.765Z,1015.68
2023-04-11T09:03:15.822Z,1015.75
2023-04-11T09:05:18.887Z,1015.75
2023-04-11T09:07:15.870Z,1015.67
2023-04-11T09:09:15.681Z,1015.66
2023-04-11T09:11:15.736Z,1015.66
2023-04-11T09:13:15.667Z,1015.71
2023-04-11T09:15:15.813Z,1015.66
2023-04-11T09:17:15.978Z,1015.61
2023-04-11T09:19:15.842Z,1015.61
2023-04-11T09:21:19.132Z,1015.67
2023-04-11T09:23:15.694Z,1015.67
2023-04-11T09:25:18.477Z,1015.65
2023-04-11T09:27:15.764Z,1015.65
2023-04-11T09:29:15.719Z,1015.65
2023-04-11T09:31:15.692Z,1015.64
2023-04-11T09:33:15.711Z,1015.70
2023-04-11T09:35:15.791Z,1015.68
2023-04-11T09:37:15.819Z,1015.74
2023-04-11T09:39:15.756Z,1015.74
2023-04-11T09:41:15.730Z,1015.70
2023-04-11T09:43:20.341Z,1015.74
2023-04-11T09:45:18.713Z,1015.73
2023-04-11T09:47:15.754Z,1015.74
2023-04-11T09:49:16.114Z,1015.74
2023-04-11T09:51:31.915Z,1015.58
2023-04-11T09:53:15.948Z,1015.63
2023-04-11T09:55:19.299Z,1015.56
2023-04-11T09:57:15.720Z,1015.56
2023-04-11T09:59:15.777Z,1015.52
2023-04-11T10:01:15.847Z,1015.62
2023-04-11T10:03:15.824Z,1015.62
2023-04-11T10:05:15.782Z,1015.55
2023-04-11T10:07:15.852Z,1015.55
2023-04-11T10:09:15.808Z,1015.58
2023-04-11T10:11:15.781Z,1015.58
2023-04-11T10:13:15.857Z,1015.60
2023-04-11T10:15:15.854Z,1015.63
2023-04-11T10:17:17.707Z,1015.63
2023-04-11T10:19:15.928Z,1015.63
2023-04-11T10:21:15.868Z,1015.75
2023-04-11T10:23:15.926Z,1015.79
2023-04-11T10:27:25.210Z,1015.77
2023-04-11T10:29:25.162Z,1015.77
2023-04-11T10:31:27.839Z,1015.91
2023-04-11T10:33:25.241Z,1015.83
2023-04-11T10:35:25.148Z,1015.91
2023-04-11T10:37:25.257Z,1015.99
2023-04-11T10:39:25.175Z,1015.99
2023-04-11T10:41:25.187Z,1016.05
2023-04-11T10:43:25.841Z,1016.05
2023-04-11T10:45:25.149Z,1016.05
2023-04-11T10:47:25.452Z,1016.05
2023-04-11T10:49:25.245Z,1016.05
2023-04-11T10:51:28.107Z,1016.04
2023-04-11T10:53:25.257Z,1015.97
2023-04-11T10:55:27.661Z,1015.96
2023-04-11T10:57:25.314Z,1015.96
2023-04-11T10:59:25.382Z,1015.95
2023-04-11T11:01:36.877Z,1015.99
2023-04-11T11:03:25.371Z,1016.03
2023-04-11T11:05:25.296Z,1016.09
2023-04-11T11:07:25.164Z,1016.09
2023-04-11T11:09:25.251Z,1016.07
2023-04-11T11:11:25.191Z,1016.08
2023-04-11T11:13:25.258Z,1016.09
2023-04-11T11:15:25.207Z,1016.08
2023-04-11T11:17:25.241Z,1016.08
2023-04-11T11:19:25.190Z,1016.14
2023-04-11T11:23:25.293Z,1016.26
2023-04-11T11:25:25.653Z,1016.26
2023-04-11T11:27:28.160Z,1016.30
2023-04-11T11:29:25.214Z,1016.24
2023-04-11T11:31:27.416Z,1016.21
2023-04-11T11:33:25.206Z,1016.18
2023-04-11T11:35:25.257Z,1016.18
2023-04-11T11:37:25.585Z,1016.22
2023-04-11T11:39:25.363Z,1016.23
2023-04-11T11:41:25.278Z,1016.13
2023-04-11T11:43:25.298Z,1016.17
2023-04-11T11:47:25.504Z,1016.20
2023-04-11T11:49:25.322Z,1016.22
2023-04-11T11:52:25.278Z,1016.13
2023-04-11T11:54:25.309Z,1016.17
2023-04-11T11:56:25.259Z,1016.25
2023-04-11T11:58:25.611Z,1016.25
2023-04-11T12:00:25.580Z,1016.23
2023-04-11T12:02:25.835Z,1016.14
2023-04-11T12:04:25.667Z,1016.14
2023-04-11T12:06:25.444Z,1016.11
2023-04-11T12:08:25.250Z,1016.11
2023-04-11T12:10:25.425Z,1016.06
2023-04-11T12:12:25.314Z,1016.09
2023-04-11T12:14:25.398Z,1016.14
2023-04-11T12:16:25.574Z,1016.15
2023-04-11T12:18:25.380Z,1016.15
2023-04-11T12:20:25.462Z,1016.09
2023-04-11T12:22:25.267Z,1016.08
2023-04-11T12:24:25.362Z,1016.10
2023-04-11T12:26:27.838Z,1016.10
2023-04-11T12:28:25.334Z,1016.14
2023-04-11T12:30:25.487Z,1016.11
2023-04-11T12:32:25.286Z,1016.12
2023-04-11T12:34:25.306Z,1016.07
2023-04-11T12:36:25.274Z,1016.07
2023-04-11T12:38:25.318Z,1016.21
2023-04-11T12:40:25.256Z,1016.25
2023-04-11T12:42:27.113Z,1016.26
2023-04-11T12:44:26.036Z,1016.26
2023-04-11T12:46:25.275Z,1016.26
2023-04-11T12:48:25.550Z,1016.20
2023-04-11T12:50:25.426Z,1016.23
2023-04-11T12:52:25.390Z,1016.29
2023-04-11T12:54:25.339Z,1016.29
2023-04-11T12:56:25.255Z,1016.23
2023-04-11T12:58:30.126Z,1016.31
2023-04-11T13:00:25.356Z,1016.23
2023-04-11T13:02:25.569Z,1016.27
2023-04-11T13:04:25.611Z,1016.27
2023-04-11T13:06:25.354Z,1016.26
2023-04-11T13:08:25.301Z,1016.18
2023-04-11T13:10:30.987Z,1016.26
2023-04-11T13:12:27.801Z,1016.26
2023-04-11T13:14:25.349Z,1016.26
2023-04-11T13:16:25.306Z,1016.27
2023-04-11T13:18:25.403Z,1016.26
2023-04-11T13:20:25.413Z,1016.22
2023-04-11T13:22:25.402Z,1016.22
2023-04-11T13:24:25.337Z,1016.18
2023-04-11T13:26:25.392Z,1016.18
2023-04-11T13:28:25.295Z,1016.20
2023-04-11T13:30:25.428Z,1016.12
2023-04-11T13:32:28.900Z,1016.12
2023-04-11T13:34:25.388Z,1016.16
2023-04-11T13:36:25.328Z,1016.12
2023-04-11T13:38:25.481Z,1016.09
2023-04-11T13:40:25.548Z,1015.99
2023-04-11T13:42:25.361Z,1015.99
2023-04-11T13:44:25.665Z,1016.04
2023-04-11T13:46:26.906Z,1016.16
2023-04-11T13:48:25.303Z,1016.09
2023-04-11T13:50:25.462Z,1016.13
2023-04-11T13:52:25.427Z,1016.13
2023-04-11T13:54:25.342Z,1016.19
2023-04-11T13:56:25.363Z,1016.20
2023-04-11T13:58:25.408Z,1016.21
2023-04-11T14:00:25.393Z,1016.21
2023-04-11T14:02:25.473Z,1016.15
2023-04-11T14:04:25.495Z,1016.16
2023-04-11T14:06:25.360Z,1016.16
2023-04-11T14:08:25.393Z,1016.18
2023-04-11T14:10:25.517Z,1016.18
2023-04-11T14:12:25.571Z,1016.21
2023-04-11T14:14:25.456Z,1016.13
2023-04-11T14:16:25.453Z,1016.15
2023-04-11T14:18:25.417Z,1016.12
2023-04-11T14:20:25.486Z,1016.12
2023-04-11T14:22:25.546Z,1016.15
2023-04-11T14:24:25.386Z,1016.21
2023-04-11T14:26:25.458Z,1016.24
2023-04-11T14:28:27.040Z,1016.24
2023-04-11T14:30:25.465Z,1016.28
2023-04-11T14:32:25.424Z,1016.18
2023-04-11T14:34:25.361Z,1016.23
2023-04-11T14:36:25.480Z,1016.16
2023-04-11T14:38:25.437Z,1016.16
2023-04-11T14:40:25.393Z,1016.15
2023-04-11T14:42:25.440Z,1016.13
2023-04-11T14:44:25.357Z,1016.16
2023-04-11T14:46:25.490Z,1016.16
2023-04-11T14:48:25.449Z,1016.16
2023-04-11T14:50:26.983Z,1016.20
2023-04-11T14:52:25.462Z,1016.17
2023-04-11T14:54:25.386Z,1016.10
2023-04-11T14:56:28.116Z,1016.10
2023-04-11T14:58:25.488Z,1016.11
2023-04-11T15:00:25.603Z,1016.10
2023-04-11T15:02:25.634Z,1016.16
2023-04-11T15:04:25.623Z,1016.22
2023-04-11T15:06:28.317Z,1016.22
2023-04-11T15:08:25.382Z,1016.07
2023-04-11T15:10:25.504Z,1016.11
2023-04-11T15:12:25.488Z,1016.07
2023-04-11T15:14:25.632Z,1016.04
2023-04-11T15:16:26.085Z,1016.04
2023-04-11T15:18:30.327Z,1016.01
2023-04-11T15:20:25.448Z,1016.08
2023-04-11T15:22:25.596Z,1016.09
2023-04-11T15:24:25.449Z,1016.09
2023-04-11T15:26:25.498Z,1016.08
2023-04-11T15:28:25.365Z,1016.08
2023-04-11T15:30:25.420Z,1016.16
2023-04-11T15:32:25.469Z,1016.04
2023-04-11T15:34:25.491Z,1016.04
2023-04-11T15:36:25.502Z,1016.04
2023-04-11T15:38:25.458Z,1016.07
2023-04-11T15:40:25.429Z,1016.03
2023-04-11T15:42:25.589Z,1016.03
2023-04-11T15:44:25.447Z,1016.03
2023-04-11T15:47:25.507Z,1016.04
2023-04-11T15:49:25.525Z,1016.04
2023-04-11T15:51:25.502Z,1016.12
2023-04-11T15:53:25.424Z,1016.04
2023-04-11T15:55:28.015Z,1016.03
2023-04-11T15:57:25.619Z,1016.03
2023-04-11T15:59:25.552Z,1016.05
2023-04-11T16:01:25.669Z,1016.02
2023-04-11T16:03:25.409Z,1015.94
2023-04-11T16:05:25.568Z,1015.97
2023-04-11T16:07:25.774Z,1015.97
2023-04-11T16:09:25.758Z,1015.97
2023-04-11T16:11:26.031Z,1016.03
2023-04-11T16:13:25.794Z,1015.99
2023-04-11T16:15:25.608Z,1015.90
2023-04-11T16:17:25.402Z,1015.90
2023-04-11T16:19:28.384Z,1015.94
2023-04-11T16:21:25.617Z,1015.96
2023-04-11T16:23:25.546Z,1015.93
2023-04-11T16:27:25.736Z,1015.95
2023-04-11T16:28:49.516Z,1015.93
2023-04-11T16:30:55.520Z,1015.93
2023-04-11T16:32:49.689Z,1015.93
2023-04-11T16:34:49.487Z,1015.87
2023-04-11T16:36:49.563Z,1015.84
2023-04-11T16:38:49.469Z,1015.87
2023-04-11T16:40:49.529Z,1015.87
2023-04-11T16:42:49.562Z,1015.93
2023-04-11T16:44:49.536Z,1015.89
2023-04-11T16:46:49.582Z,1015.85
2023-04-11T16:48:49.629Z,1015.85
2023-04-11T16:50:49.598Z,1015.85
2023-04-11T16:52:50.149Z,1015.78
2023-04-11T16:54:49.477Z,1015.73
2023-04-11T16:56:49.683Z,1015.73
2023-04-11T16:58:49.562Z,1015.73
2023-04-11T17:00:49.557Z,1015.78
2023-04-11T17:02:50.735Z,1015.77
2023-04-11T17:04:49.494Z,1015.78
2023-04-11T17:06:49.558Z,1015.73
2023-04-11T17:08:49.885Z,1015.73
2023-04-11T17:10:49.673Z,1015.77
2023-04-11T17:12:49.525Z,1015.71
2023-04-11T17:14:50.704Z,1015.62
2023-04-11T17:17:49.623Z,1015.64
2023-04-11T17:19:49.635Z,1015.69
2023-04-11T17:21:49.582Z,1015.64
2023-04-11T17:22:54.193Z,1015.64
2023-04-11T17:25:49.520Z,1015.68
2023-04-11T17:27:49.631Z,1015.60
2023-04-11T17:29:54.456Z,1015.60
2023-04-11T17:31:49.928Z,1015.60
2023-04-11T17:33:49.483Z,1015.62
2023-04-11T17:35:49.529Z,1015.63
2023-04-11T17:37:49.660Z,1015.62
2023-04-11T17:39:49.641Z,1015.60
2023-04-11T17:41:49.552Z,1015.60
2023-04-11T17:43:49.579Z,1015.66
2023-04-11T17:45:50.091Z,1015.65
2023-04-11T17:47:49.704Z,1015.74
2023-04-11T17:49:49.581Z,1015.72
2023-04-11T17:51:59.064Z,1015.72
2023-04-11T17:53:49.541Z,1015.78
2023-04-11T17:55:49.607Z,1015.81
2023-04-11T17:57:49.615Z,1015.88
2023-04-11T17:59:49.682Z,1015.88
2023-04-11T18:01:49.664Z,1015.84
2023-04-11T18:03:49.870Z,1015.81
2023-04-11T18:05:52.186Z,1015.77
2023-04-11T18:07:49.945Z,1015.78
2023-04-11T18:09:49.646Z,1015.78
2023-04-11T18:11:49.521Z,1015.78
2023-04-11T18:13:50.493Z,1015.81
2023-04-11T18:15:49.553Z,1015.84
2023-04-11T18:17:49.794Z,1015.79
2023-04-11T18:19:49.537Z,1015.79
2023-04-11T18:21:49.596Z,1015.82
2023-04-11T18:23:49.567Z,1015.82
2023-04-11T18:25:49.580Z,1015.82
2023-04-11T18:27:49.564Z,1015.82
2023-04-11T18:29:49.692Z,1015.85
2023-04-11T18:31:54.610Z,1015.84
2023-04-11T18:33:49.555Z,1015.87
2023-04-11T18:35:49.752Z,1015.94
2023-04-11T18:37:49.819Z,1015.94
2023-04-11T18:39:50.123Z,1015.90
2023-04-11T18:41:54.427Z,1015.89
2023-04-11T18:43:49.536Z,1015.94
2023-04-11T18:45:49.552Z,1015.93
2023-04-11T18:47:49.700Z,1015.93
2023-04-11T18:49:49.737Z,1015.95
2023-04-11T18:51:55.438Z,1015.95
2023-04-11T18:53:49.696Z,1015.94
2023-04-11T18:55:49.642Z,1015.91
2023-04-11T18:57:52.455Z,1015.91
2023-04-11T18:59:56.162Z,1015.95
2023-04-11T19:01:49.780Z,1015.96
2023-04-11T19:03:50.237Z,1016.01
2023-04-11T19:05:50.560Z,1016.01
2023-04-11T19:07:49.609Z,1016.09
2023-04-11T19:09:49.710Z,1016.10
2023-04-11T19:11:49.688Z,1016.11
2023-04-11T19:13:49.582Z,1016.13
2023-04-11T19:15:49.681Z,1016.13
2023-04-11T19:17:49.755Z,1015.99
2023-04-11T19:19:49.618Z,1015.91
2023-04-11T19:21:49.877Z,1015.85
2023-04-11T19:23:52.165Z,1015.83
2023-04-11T19:25:49.553Z,1015.83
2023-04-11T19:27:49.653Z,1015.84
2023-04-11T19:29:49.642Z,1015.81
2023-04-11T19:31:49.568Z,1015.81
2023-04-11T19:33:49.529Z,1015.81
2023-04-11T19:35:49.771Z,1015.76
2023-04-11T19:37:49.578Z,1015.71
2023-04-11T19:39:49.553Z,1015.69
2023-04-11T19:41:49.836Z,1015.71
2023-04-11T19:43:50.377Z,1015.71
2023-04-11T19:45:54.588Z,1015.67
2023-04-11T19:47:49.680Z,1015.65
2023-04-11T19:49:49.573Z,1015.65
2023-04-11T19:51:49.785Z,1015.64
2023-04-11T19:53:49.656Z,1015.64
2023-04-11T19:55:49.645Z,1015.64
2023-04-11T19:57:49.729Z,1015.60
2023-04-11T19:59:52.714Z,1015.53
2023-04-11T20:01:49.799Z,1015.53
2023-04-11T20:03:49.880Z,1015.50
2023-04-11T20:05:49.654Z,1015.47
2023-04-11T20:07:49.928Z,1015.46
2023-04-11T20:09:49.777Z,1015.45
2023-04-11T20:11:49.829Z,1015.45
2023-04-11T20:13:49.617Z,1015.45
2023-04-11T20:15:49.613Z,1015.43
2023-04-11T20:17:49.815Z,1015.43
2023-04-11T20:19:49.781Z,1015.40
2023-04-11T20:21:49.804Z,1015.40
2023-04-11T20:23:49.687Z,1015.36
2023-04-11T20:25:49.721Z,1015.38
2023-04-11T20:27:49.638Z,1015.38
2023-04-11T20:29:49.776Z,1015.38
2023-04-11T20:31:49.672Z,1015.37
2023-04-11T20:33:49.610Z,1015.30
2023-04-11T20:35:49.672Z,1015.26
2023-04-11T20:37:49.645Z,1015.29
2023-04-11T20:39:54.821Z,1015.29
2023-04-11T20:41:49.722Z,1015.32
2023-04-11T20:43:49.645Z,1015.27
2023-04-11T20:45:49.688Z,1015.23
2023-04-11T20:47:50.286Z,1015.22
2023-04-11T20:49:49.625Z,1015.22
2023-04-11T20:51:49.718Z,1015.12
2023-04-11T20:53:49.599Z,1015.12
2023-04-11T20:55:49.674Z,1015.07
2023-04-11T20:58:49.940Z,1015.10
2023-04-11T21:00:49.887Z,1015.08
2023-04-11T21:02:50.114Z,1015.08
2023-04-11T21:04:49.865Z,1014.99
2023-04-11T21:05:52.759Z,1014.95
2023-04-11T21:08:50.053Z,1015.00
2023-04-11T21:10:49.761Z,1014.97
2023-04-11T21:12:49.684Z,1014.97
2023-04-11T21:14:49.692Z,1014.89
2023-04-11T21:16:51.389Z,1014.90
2023-04-11T21:18:49.868Z,1014.88
2023-04-11T21:20:49.717Z,1014.88
2023-04-11T21:22:49.820Z,1014.88
2023-04-11T21:24:49.660Z,1014.79
2023-04-11T21:26:49.631Z,1014.74
2023-04-11T21:28:49.688Z,1014.78
2023-04-11T21:30:49.704Z,1014.78
2023-04-11T21:32:49.930Z,1014.75
2023-04-11T21:34:49.705Z,1014.75
2023-04-11T21:36:49.646Z,1014.66
2023-04-11T21:38:50.009Z,1014.66
2023-04-11T21:40:49.825Z,1014.66
2023-04-11T21:42:49.648Z,1014.71
2023-04-11T21:44:49.777Z,1014.65
2023-04-11T21:46:49.826Z,1014.55
2023-04-11T21:48:51.408Z,1014.54
2023-04-11T21:50:49.691Z,1014.54
2023-04-11T21:52:50.342Z,1014.53
2023-04-11T21:54:52.393Z,1014.49
2023-04-11T21:56:49.662Z,1014.46
2023-04-11T21:58:49.763Z,1014.42
2023-04-11T22:00:49.684Z,1014.42
2023-04-11T22:02:50.065Z,1014.41
2023-04-11T22:05:04.941Z,1014.37
2023-04-11T22:06:49.645Z,1014.31
2023-04-11T22:08:51.485Z,1014.31
2023-04-11T22:10:49.706Z,1014.21
2023-04-11T22:12:49.791Z,1014.22
2023-04-11T22:14:50.392Z,1014.22
2023-04-11T22:16:49.662Z,1014.06
2023-04-11T22:18:49.713Z,1014.06
2023-04-11T22:20:49.832Z,1014.00
2023-04-11T22:22:49.889Z,1014.00
2023-04-11T22:24:49.808Z,1013.94
2023-04-11T22:26:51.166Z,1013.84
2023-04-11T22:28:49.669Z,1013.84
2023-04-11T22:30:49.670Z,1013.73
2023-04-11T22:32:49.893Z,1013.68
2023-04-11T22:34:49.682Z,1013.72
2023-04-11T22:36:49.689Z,1013.72
2023-04-11T22:38:57.423Z,1013.66
2023-04-11T22:40:49.696Z,1013.60
2023-04-11T22:42:49.854Z,1013.54
2023-04-11T22:47:10.985Z,1013.52
2023-04-11T22:49:11.174Z,1013.48
2023-04-11T22:51:11.256Z,1013.47
2023-04-11T22:53:10.993Z,1013.40
2023-04-11T22:55:10.981Z,1013.40
2023-04-11T22:57:13.165Z,1013.40
2023-04-11T22:59:10.994Z,1013.30
2023-04-11T23:01:11.349Z,1013.25
2023-04-11T23:03:11.022Z,1013.14
2023-04-11T23:05:11.023Z,1013.14
2023-04-11T23:07:11.000Z,1013.09
2023-04-11T23:09:11.063Z,1013.07
2023-04-11T23:11:11.002Z,1013.03
2023-04-11T23:13:11.190Z,1013.02
2023-04-11T23:15:11.032Z,1013.02
2023-04-11T23:17:10.979Z,1013.00
2023-04-11T23:19:12.378Z,1012.94
2023-04-11T23:21:13.745Z,1012.82
2023-04-11T23:23:10.945Z,1012.78
2023-04-11T23:25:11.000Z,1012.78
2023-04-11T23:27:10.990Z,1012.85
2023-04-11T23:29:10.938Z,1012.89
2023-04-11T23:31:11.120Z,1012.77
2023-04-11T23:33:11.039Z,1012.77
2023-04-11T23:35:13.875Z,1012.64
2023-04-11T23:37:11.018Z,1012.64
2023-04-11T23:39:15.865Z,1012.55
2023-04-11T23:41:10.973Z,1012.58
2023-04-11T23:43:14.268Z,1012.58
2023-04-11T23:45:11.135Z,1012.63
2023-04-11T23:47:11.075Z,1012.62
2023-04-11T23:49:11.287Z,1012.57
2023-04-11T23:51:10.985Z,1012.54
2023-04-11T23:53:14.054Z,1012.54
2023-04-11T23:55:10.985Z,1012.49
2023-04-11T23:57:11.047Z,1012.45
2023-04-11T23:59:11.052Z,1012.42
